sensor_id;sensor_type;location;lat;lon;timestamp;P1;durP1;ratioP1;P2;durP2;ratioP2
13345;SDS011;6742;48.036;15.780;2024-02-14T00:02:22;4.00;;;2.23;;
13345;SDS011;6742;48.036;15.780;2024-02-14T00:04:51;4.07;;;2.40;;
13345;SDS011;6742;48.036;15.780;2024-02-14T00:07:18;3.77;;;2.10;;
13345;SDS011;6742;48.036;15.780;2024-02-14T00:09:45;5.00;;;2.80;;
13345;SDS011;6742;48.036;15.780;2024-02-14T00:12:12;5.47;;;3.00;;
13345;SDS011;6742;48.036;15.780;2024-02-14T00:14:40;4.00;;;2.83;;
13345;SDS011;6742;48.036;15.780;2024-02-14T00:17:07;3.90;;;2.80;;
13345;SDS011;6742;48.036;15.780;2024-02-14T00:19:35;2.90;;;1.93;;
13345;SDS011;6742;48.036;15.780;2024-02-14T00:22:02;3.27;;;2.17;;
13345;SDS011;6742;48.036;15.780;2024-02-14T00:24:29;5.30;;;1.97;;
13345;SDS011;6742;48.036;15.780;2024-02-14T00:26:57;8.67;;;2.30;;
13345;SDS011;6742;48.036;15.780;2024-02-14T00:29:25;5.60;;;2.13;;
13345;SDS011;6742;48.036;15.780;2024-02-14T00:31:54;3.27;;;2.27;;
13345;SDS011;6742;48.036;15.780;2024-02-14T00:34:21;2.53;;;1.97;;
13345;SDS011;6742;48.036;15.780;2024-02-14T00:36:47;3.17;;;1.80;;
13345;SDS011;6742;48.036;15.780;2024-02-14T00:39:14;4.90;;;2.30;;
13345;SDS011;6742;48.036;15.780;2024-02-14T00:41:41;4.07;;;1.87;;
13345;SDS011;6742;48.036;15.780;2024-02-14T00:44:08;2.60;;;1.97;;
13345;SDS011;6742;48.036;15.780;2024-02-14T00:46:35;3.90;;;2.33;;
13345;SDS011;6742;48.036;15.780;2024-02-14T00:49:03;4.43;;;2.33;;
13345;SDS011;6742;48.036;15.780;2024-02-14T00:51:30;4.03;;;2.53;;
13345;SDS011;6742;48.036;15.780;2024-02-14T00:53:58;3.47;;;2.33;;
13345;SDS011;6742;48.036;15.780;2024-02-14T00:56:25;3.73;;;2.67;;
13345;SDS011;6742;48.036;15.780;2024-02-14T00:58:52;2.43;;;2.20;;
13345;SDS011;6742;48.036;15.780;2024-02-14T01:01:19;5.33;;;2.80;;
13345;SDS011;6742;48.036;15.780;2024-02-14T01:03:46;3.83;;;2.43;;
13345;SDS011;6742;48.036;15.780;2024-02-14T01:06:14;4.27;;;2.50;;
13345;SDS011;6742;48.036;15.780;2024-02-14T01:08:41;5.10;;;2.87;;
13345;SDS011;6742;48.036;15.780;2024-02-14T01:11:09;3.43;;;2.80;;
13345;SDS011;6742;48.036;15.780;2024-02-14T01:13:36;4.03;;;2.70;;
13345;SDS011;6742;48.036;15.780;2024-02-14T01:16:03;3.00;;;2.70;;
13345;SDS011;6742;48.036;15.780;2024-02-14T01:18:31;3.83;;;2.70;;
13345;SDS011;6742;48.036;15.780;2024-02-14T01:20:58;3.23;;;2.93;;
13345;SDS011;6742;48.036;15.780;2024-02-14T01:23:27;3.83;;;2.80;;
13345;SDS011;6742;48.036;15.780;2024-02-14T01:25:54;4.67;;;2.90;;
13345;SDS011;6742;48.036;15.780;2024-02-14T01:28:21;4.17;;;2.67;;
13345;SDS011;6742;48.036;15.780;2024-02-14T01:30:48;3.37;;;2.53;;
13345;SDS011;6742;48.036;15.780;2024-02-14T01:33:15;4.43;;;2.50;;
13345;SDS011;6742;48.036;15.780;2024-02-14T01:35:42;2.93;;;2.20;;
13345;SDS011;6742;48.036;15.780;2024-02-14T01:38:09;3.50;;;2.23;;
13345;SDS011;6742;48.036;15.780;2024-02-14T01:40:38;3.97;;;1.97;;
13345;SDS011;6742;48.036;15.780;2024-02-14T01:43:08;1.87;;;1.70;;
13345;SDS011;6742;48.036;15.780;2024-02-14T01:45:36;4.50;;;2.20;;
13345;SDS011;6742;48.036;15.780;2024-02-14T01:48:04;3.07;;;2.10;;
13345;SDS011;6742;48.036;15.780;2024-02-14T01:50:33;2.40;;;2.20;;
13345;SDS011;6742;48.036;15.780;2024-02-14T01:53:00;4.27;;;2.60;;
13345;SDS011;6742;48.036;15.780;2024-02-14T01:55:28;2.90;;;2.10;;
13345;SDS011;6742;48.036;15.780;2024-02-14T01:58:01;2.87;;;2.33;;
13345;SDS011;6742;48.036;15.780;2024-02-14T02:00:29;3.53;;;2.20;;
13345;SDS011;6742;48.036;15.780;2024-02-14T02:02:57;3.20;;;2.47;;
13345;SDS011;6742;48.036;15.780;2024-02-14T02:05:25;3.97;;;2.20;;
13345;SDS011;6742;48.036;15.780;2024-02-14T02:07:52;3.00;;;2.30;;
13345;SDS011;6742;48.036;15.780;2024-02-14T02:10:19;4.20;;;2.40;;
13345;SDS011;6742;48.036;15.780;2024-02-14T02:12:47;3.23;;;2.40;;
13345;SDS011;6742;48.036;15.780;2024-02-14T02:15:17;3.33;;;2.10;;
13345;SDS011;6742;48.036;15.780;2024-02-14T02:17:44;3.67;;;2.40;;
13345;SDS011;6742;48.036;15.780;2024-02-14T02:20:17;2.30;;;2.10;;
13345;SDS011;6742;48.036;15.780;2024-02-14T02:22:46;3.60;;;2.10;;
13345;SDS011;6742;48.036;15.780;2024-02-14T02:25:14;4.33;;;2.43;;
13345;SDS011;6742;48.036;15.780;2024-02-14T02:27:41;3.13;;;2.27;;
13345;SDS011;6742;48.036;15.780;2024-02-14T02:30:08;2.67;;;1.80;;
13345;SDS011;6742;48.036;15.780;2024-02-14T02:32:35;2.43;;;2.00;;
13345;SDS011;6742;48.036;15.780;2024-02-14T02:35:03;4.23;;;2.10;;
13345;SDS011;6742;48.036;15.780;2024-02-14T02:37:31;2.70;;;2.40;;
13345;SDS011;6742;48.036;15.780;2024-02-14T02:39:59;2.97;;;2.10;;
13345;SDS011;6742;48.036;15.780;2024-02-14T02:42:26;3.37;;;2.30;;
13345;SDS011;6742;48.036;15.780;2024-02-14T02:44:54;3.13;;;2.33;;
13345;SDS011;6742;48.036;15.780;2024-02-14T02:47:21;3.23;;;2.33;;
13345;SDS011;6742;48.036;15.780;2024-02-14T02:49:48;3.03;;;2.37;;
13345;SDS011;6742;48.036;15.780;2024-02-14T02:52:15;3.17;;;2.13;;
13345;SDS011;6742;48.036;15.780;2024-02-14T02:54:42;4.97;;;2.67;;
13345;SDS011;6742;48.036;15.780;2024-02-14T02:57:13;4.03;;;1.90;;
13345;SDS011;6742;48.036;15.780;2024-02-14T02:59:40;5.80;;;2.07;;
13345;SDS011;6742;48.036;15.780;2024-02-14T03:02:09;3.30;;;2.23;;
13345;SDS011;6742;48.036;15.780;2024-02-14T03:04:37;3.43;;;2.37;;
13345;SDS011;6742;48.036;15.780;2024-02-14T03:07:04;3.60;;;2.30;;
13345;SDS011;6742;48.036;15.780;2024-02-14T03:09:33;2.73;;;2.17;;
13345;SDS011;6742;48.036;15.780;2024-02-14T03:12:01;2.50;;;2.30;;
13345;SDS011;6742;48.036;15.780;2024-02-14T03:14:30;3.03;;;2.20;;
13345;SDS011;6742;48.036;15.780;2024-02-14T03:16:58;2.70;;;2.10;;
13345;SDS011;6742;48.036;15.780;2024-02-14T03:19:26;2.80;;;2.50;;
13345;SDS011;6742;48.036;15.780;2024-02-14T03:21:53;4.17;;;2.50;;
13345;SDS011;6742;48.036;15.780;2024-02-14T03:24:20;2.70;;;2.30;;
13345;SDS011;6742;48.036;15.780;2024-02-14T03:26:47;4.80;;;2.30;;
13345;SDS011;6742;48.036;15.780;2024-02-14T03:29:18;3.70;;;2.40;;
13345;SDS011;6742;48.036;15.780;2024-02-14T03:31:47;4.07;;;2.70;;
13345;SDS011;6742;48.036;15.780;2024-02-14T03:34:14;2.90;;;2.30;;
13345;SDS011;6742;48.036;15.780;2024-02-14T03:36:41;4.57;;;2.40;;
13345;SDS011;6742;48.036;15.780;2024-02-14T03:39:08;3.10;;;2.30;;
13345;SDS011;6742;48.036;15.780;2024-02-14T03:41:35;3.80;;;2.20;;
13345;SDS011;6742;48.036;15.780;2024-02-14T03:44:03;3.50;;;2.10;;
13345;SDS011;6742;48.036;15.780;2024-02-14T03:46:31;2.60;;;1.80;;
13345;SDS011;6742;48.036;15.780;2024-02-14T03:49:01;4.87;;;2.30;;
13345;SDS011;6742;48.036;15.780;2024-02-14T03:51:28;2.43;;;2.10;;
13345;SDS011;6742;48.036;15.780;2024-02-14T03:53:55;2.17;;;1.83;;
13345;SDS011;6742;48.036;15.780;2024-02-14T03:56:23;3.40;;;1.80;;
13345;SDS011;6742;48.036;15.780;2024-02-14T03:58:51;3.50;;;2.10;;
13345;SDS011;6742;48.036;15.780;2024-02-14T04:01:18;1.97;;;1.73;;
13345;SDS011;6742;48.036;15.780;2024-02-14T04:03:45;2.07;;;1.80;;
13345;SDS011;6742;48.036;15.780;2024-02-14T04:06:15;2.87;;;1.80;;
13345;SDS011;6742;48.036;15.780;2024-02-14T04:08:43;3.00;;;1.57;;
13345;SDS011;6742;48.036;15.780;2024-02-14T04:11:10;2.87;;;1.60;;
13345;SDS011;6742;48.036;15.780;2024-02-14T04:13:38;3.13;;;1.50;;
13345;SDS011;6742;48.036;15.780;2024-02-14T04:16:05;3.13;;;1.70;;
13345;SDS011;6742;48.036;15.780;2024-02-14T04:18:33;1.77;;;1.57;;
13345;SDS011;6742;48.036;15.780;2024-02-14T04:21:00;2.50;;;1.70;;
13345;SDS011;6742;48.036;15.780;2024-02-14T04:23:30;2.63;;;1.60;;
13345;SDS011;6742;48.036;15.780;2024-02-14T04:25:57;1.67;;;1.30;;
13345;SDS011;6742;48.036;15.780;2024-02-14T04:28:24;2.50;;;1.60;;
13345;SDS011;6742;48.036;15.780;2024-02-14T04:30:51;2.27;;;1.87;;
13345;SDS011;6742;48.036;15.780;2024-02-14T04:33:20;2.47;;;1.90;;
13345;SDS011;6742;48.036;15.780;2024-02-14T04:35:47;5.70;;;1.90;;
13345;SDS011;6742;48.036;15.780;2024-02-14T04:38:14;2.27;;;1.77;;
13345;SDS011;6742;48.036;15.780;2024-02-14T04:40:42;2.57;;;2.00;;
13345;SDS011;6742;48.036;15.780;2024-02-14T04:43:09;2.10;;;1.90;;
13345;SDS011;6742;48.036;15.780;2024-02-14T04:45:37;2.00;;;1.50;;
13345;SDS011;6742;48.036;15.780;2024-02-14T04:48:04;1.97;;;1.70;;
13345;SDS011;6742;48.036;15.780;2024-02-14T04:50:32;3.90;;;2.10;;
13345;SDS011;6742;48.036;15.780;2024-02-14T04:52:59;2.83;;;1.83;;
13345;SDS011;6742;48.036;15.780;2024-02-14T04:55:26;1.60;;;1.50;;
13345;SDS011;6742;48.036;15.780;2024-02-14T04:57:55;2.70;;;1.90;;
13345;SDS011;6742;48.036;15.780;2024-02-14T05:00:22;3.50;;;2.40;;
13345;SDS011;6742;48.036;15.780;2024-02-14T05:02:49;5.80;;;2.17;;
13345;SDS011;6742;48.036;15.780;2024-02-14T05:05:16;2.20;;;2.00;;
13345;SDS011;6742;48.036;15.780;2024-02-14T05:07:45;3.50;;;2.00;;
13345;SDS011;6742;48.036;15.780;2024-02-14T05:10:12;3.80;;;2.37;;
13345;SDS011;6742;48.036;15.780;2024-02-14T05:12:40;4.57;;;2.43;;
13345;SDS011;6742;48.036;15.780;2024-02-14T05:15:08;4.47;;;2.70;;
13345;SDS011;6742;48.036;15.780;2024-02-14T05:17:37;5.70;;;3.70;;
13345;SDS011;6742;48.036;15.780;2024-02-14T05:20:04;5.50;;;4.00;;
13345;SDS011;6742;48.036;15.780;2024-02-14T05:22:34;7.40;;;4.40;;
13345;SDS011;6742;48.036;15.780;2024-02-14T05:25:02;3.87;;;3.40;;
13345;SDS011;6742;48.036;15.780;2024-02-14T05:27:30;9.00;;;4.60;;
13345;SDS011;6742;48.036;15.780;2024-02-14T05:29:57;6.20;;;4.30;;
13345;SDS011;6742;48.036;15.780;2024-02-14T05:32:25;7.60;;;3.80;;
13345;SDS011;6742;48.036;15.780;2024-02-14T05:34:52;4.83;;;3.63;;
13345;SDS011;6742;48.036;15.780;2024-02-14T05:37:19;5.27;;;3.23;;
13345;SDS011;6742;48.036;15.780;2024-02-14T05:39:46;5.83;;;3.40;;
13345;SDS011;6742;48.036;15.780;2024-02-14T05:42:13;3.80;;;2.90;;
13345;SDS011;6742;48.036;15.780;2024-02-14T05:44:41;3.30;;;2.87;;
13345;SDS011;6742;48.036;15.780;2024-02-14T05:47:08;3.57;;;2.90;;
13345;SDS011;6742;48.036;15.780;2024-02-14T05:49:38;4.50;;;2.87;;
13345;SDS011;6742;48.036;15.780;2024-02-14T05:52:05;3.73;;;2.40;;
13345;SDS011;6742;48.036;15.780;2024-02-14T05:54:32;2.97;;;2.60;;
13345;SDS011;6742;48.036;15.780;2024-02-14T05:56:59;4.17;;;2.20;;
13345;SDS011;6742;48.036;15.780;2024-02-14T05:59:27;7.00;;;2.80;;
13345;SDS011;6742;48.036;15.780;2024-02-14T06:01:54;5.07;;;2.70;;
13345;SDS011;6742;48.036;15.780;2024-02-14T06:04:21;4.33;;;1.90;;
13345;SDS011;6742;48.036;15.780;2024-02-14T06:06:50;1.70;;;1.60;;
13345;SDS011;6742;48.036;15.780;2024-02-14T06:09:17;6.07;;;1.97;;
13345;SDS011;6742;48.036;15.780;2024-02-14T06:11:44;4.27;;;1.67;;
13345;SDS011;6742;48.036;15.780;2024-02-14T06:14:11;3.30;;;1.83;;
13345;SDS011;6742;48.036;15.780;2024-02-14T06:16:38;3.80;;;1.80;;
13345;SDS011;6742;48.036;15.780;2024-02-14T06:19:05;1.77;;;1.60;;
13345;SDS011;6742;48.036;15.780;2024-02-14T06:21:32;2.70;;;1.70;;
13345;SDS011;6742;48.036;15.780;2024-02-14T06:24:01;2.30;;;1.77;;
13345;SDS011;6742;48.036;15.780;2024-02-14T06:26:29;1.90;;;1.50;;
13345;SDS011;6742;48.036;15.780;2024-02-14T06:28:56;3.10;;;1.90;;
13345;SDS011;6742;48.036;15.780;2024-02-14T06:31:23;3.77;;;1.70;;
13345;SDS011;6742;48.036;15.780;2024-02-14T06:33:51;2.30;;;1.67;;
13345;SDS011;6742;48.036;15.780;2024-02-14T06:36:18;3.33;;;1.70;;
13345;SDS011;6742;48.036;15.780;2024-02-14T06:38:44;2.10;;;1.50;;
13345;SDS011;6742;48.036;15.780;2024-02-14T06:41:13;2.67;;;2.10;;
13345;SDS011;6742;48.036;15.780;2024-02-14T06:43:40;15.63;;;3.00;;
13345;SDS011;6742;48.036;15.780;2024-02-14T06:46:07;10.23;;;3.20;;
13345;SDS011;6742;48.036;15.780;2024-02-14T06:48:34;6.47;;;2.53;;
13345;SDS011;6742;48.036;15.780;2024-02-14T06:51:01;11.83;;;2.90;;
13345;SDS011;6742;48.036;15.780;2024-02-14T06:53:28;9.63;;;3.00;;
13345;SDS011;6742;48.036;15.780;2024-02-14T06:55:55;8.47;;;2.70;;
13345;SDS011;6742;48.036;15.780;2024-02-14T06:58:24;30.87;;;3.30;;
13345;SDS011;6742;48.036;15.780;2024-02-14T07:00:51;32.50;;;3.53;;
13345;SDS011;6742;48.036;15.780;2024-02-14T07:03:18;38.83;;;3.53;;
13345;SDS011;6742;48.036;15.780;2024-02-14T07:05:44;21.90;;;3.37;;
13345;SDS011;6742;48.036;15.780;2024-02-14T07:08:11;18.77;;;2.57;;
13345;SDS011;6742;48.036;15.780;2024-02-14T07:10:39;23.57;;;2.60;;
13345;SDS011;6742;48.036;15.780;2024-02-14T07:13:06;13.87;;;2.60;;
13345;SDS011;6742;48.036;15.780;2024-02-14T07:15:34;11.07;;;2.70;;
13345;SDS011;6742;48.036;15.780;2024-02-14T07:18:01;12.70;;;2.57;;
13345;SDS011;6742;48.036;15.780;2024-02-14T07:20:28;6.57;;;1.70;;
13345;SDS011;6742;48.036;15.780;2024-02-14T07:22:55;6.43;;;2.50;;
13345;SDS011;6742;48.036;15.780;2024-02-14T07:25:22;11.27;;;4.87;;
13345;SDS011;6742;48.036;15.780;2024-02-14T07:27:49;8.00;;;3.37;;
13345;SDS011;6742;48.036;15.780;2024-02-14T07:30:16;12.23;;;5.10;;
13345;SDS011;6742;48.036;15.780;2024-02-14T07:32:45;16.70;;;9.37;;
13345;SDS011;6742;48.036;15.780;2024-02-14T07:35:12;10.60;;;7.40;;
13345;SDS011;6742;48.036;15.780;2024-02-14T07:37:39;7.33;;;5.10;;
13345;SDS011;6742;48.036;15.780;2024-02-14T07:40:07;4.30;;;2.80;;
13345;SDS011;6742;48.036;15.780;2024-02-14T07:42:36;6.80;;;3.30;;
13345;SDS011;6742;48.036;15.780;2024-02-14T07:45:04;6.17;;;2.83;;
13345;SDS011;6742;48.036;15.780;2024-02-14T07:47:31;5.50;;;2.20;;
13345;SDS011;6742;48.036;15.780;2024-02-14T07:50:01;7.60;;;3.50;;
13345;SDS011;6742;48.036;15.780;2024-02-14T07:52:28;5.83;;;2.60;;
13345;SDS011;6742;48.036;15.780;2024-02-14T07:54:56;5.87;;;3.30;;
13345;SDS011;6742;48.036;15.780;2024-02-14T07:57:23;3.60;;;2.23;;
13345;SDS011;6742;48.036;15.780;2024-02-14T07:59:51;5.70;;;2.67;;
13345;SDS011;6742;48.036;15.780;2024-02-14T08:02:19;5.37;;;2.80;;
13345;SDS011;6742;48.036;15.780;2024-02-14T08:04:46;2.90;;;2.10;;
13345;SDS011;6742;48.036;15.780;2024-02-14T08:07:14;3.17;;;1.40;;
13345;SDS011;6742;48.036;15.780;2024-02-14T08:09:41;3.13;;;1.70;;
13345;SDS011;6742;48.036;15.780;2024-02-14T08:12:08;2.43;;;1.70;;
13345;SDS011;6742;48.036;15.780;2024-02-14T08:14:35;2.57;;;1.80;;
13345;SDS011;6742;48.036;15.780;2024-02-14T08:17:02;2.50;;;1.73;;
13345;SDS011;6742;48.036;15.780;2024-02-14T08:19:29;2.27;;;1.50;;
13345;SDS011;6742;48.036;15.780;2024-02-14T08:21:56;3.63;;;1.60;;
13345;SDS011;6742;48.036;15.780;2024-02-14T08:24:27;5.43;;;1.70;;
13345;SDS011;6742;48.036;15.780;2024-02-14T08:26:54;3.27;;;1.60;;
13345;SDS011;6742;48.036;15.780;2024-02-14T08:29:21;5.97;;;2.37;;
13345;SDS011;6742;48.036;15.780;2024-02-14T08:31:48;2.87;;;1.87;;
13345;SDS011;6742;48.036;15.780;2024-02-14T08:34:15;4.47;;;2.90;;
13345;SDS011;6742;48.036;15.780;2024-02-14T08:36:42;2.73;;;1.50;;
13345;SDS011;6742;48.036;15.780;2024-02-14T08:39:09;5.03;;;1.57;;
13345;SDS011;6742;48.036;15.780;2024-02-14T08:41:39;3.53;;;1.53;;
13345;SDS011;6742;48.036;15.780;2024-02-14T08:44:08;2.73;;;1.63;;
13345;SDS011;6742;48.036;15.780;2024-02-14T08:46:35;4.53;;;1.80;;
13345;SDS011;6742;48.036;15.780;2024-02-14T08:49:02;3.77;;;1.57;;
13345;SDS011;6742;48.036;15.780;2024-02-14T08:51:33;3.47;;;1.50;;
13345;SDS011;6742;48.036;15.780;2024-02-14T08:54:00;2.97;;;1.60;;
13345;SDS011;6742;48.036;15.780;2024-02-14T08:56:30;2.00;;;1.20;;
13345;SDS011;6742;48.036;15.780;2024-02-14T08:59:00;2.38;;;1.20;;
13345;SDS011;6742;48.036;15.780;2024-02-14T09:01:27;2.88;;;1.30;;
13345;SDS011;6742;48.036;15.780;2024-02-14T09:03:54;2.47;;;1.60;;
13345;SDS011;6742;48.036;15.780;2024-02-14T09:06:21;3.72;;;1.50;;
13345;SDS011;6742;48.036;15.780;2024-02-14T09:08:49;2.25;;;1.35;;
13345;SDS011;6742;48.036;15.780;2024-02-14T09:11:16;3.20;;;1.90;;
13345;SDS011;6742;48.036;15.780;2024-02-14T09:13:43;3.20;;;2.20;;
13345;SDS011;6742;48.036;15.780;2024-02-14T09:16:14;3.37;;;2.50;;
13345;SDS011;6742;48.036;15.780;2024-02-14T09:18:41;3.65;;;2.33;;
13345;SDS011;6742;48.036;15.780;2024-02-14T09:21:08;6.45;;;3.95;;
13345;SDS011;6742;48.036;15.780;2024-02-14T09:23:35;4.93;;;2.70;;
13345;SDS011;6742;48.036;15.780;2024-02-14T09:26:05;3.10;;;2.33;;
13345;SDS011;6742;48.036;15.780;2024-02-14T09:28:32;4.70;;;2.67;;
13345;SDS011;6742;48.036;15.780;2024-02-14T09:31:00;6.38;;;2.42;;
13345;SDS011;6742;48.036;15.780;2024-02-14T09:33:30;2.25;;;1.70;;
13345;SDS011;6742;48.036;15.780;2024-02-14T09:36:01;4.95;;;2.15;;
13345;SDS011;6742;48.036;15.780;2024-02-14T09:38:29;4.38;;;1.80;;
13345;SDS011;6742;48.036;15.780;2024-02-14T09:40:57;5.67;;;2.90;;
13345;SDS011;6742;48.036;15.780;2024-02-14T09:43:37;5.43;;;2.10;;
13345;SDS011;6742;48.036;15.780;2024-02-14T09:46:06;1.88;;;1.33;;
13345;SDS011;6742;48.036;15.780;2024-02-14T09:48:35;2.22;;;1.58;;
13345;SDS011;6742;48.036;15.780;2024-02-14T09:51:04;2.80;;;1.77;;
13345;SDS011;6742;48.036;15.780;2024-02-14T09:53:33;12.65;;;1.88;;
13345;SDS011;6742;48.036;15.780;2024-02-14T09:56:01;4.93;;;1.90;;
13345;SDS011;6742;48.036;15.780;2024-02-14T09:58:28;3.50;;;2.00;;
13345;SDS011;6742;48.036;15.780;2024-02-14T10:00:57;4.70;;;2.80;;
13345;SDS011;6742;48.036;15.780;2024-02-14T10:03:23;4.85;;;2.50;;
13345;SDS011;6742;48.036;15.780;2024-02-14T10:05:52;3.30;;;2.40;;
13345;SDS011;6742;48.036;15.780;2024-02-14T10:08:19;3.08;;;2.30;;
13345;SDS011;6742;48.036;15.780;2024-02-14T10:10:46;4.82;;;2.50;;
13345;SDS011;6742;48.036;15.780;2024-02-14T10:13:15;3.25;;;2.20;;
13345;SDS011;6742;48.036;15.780;2024-02-14T10:15:42;3.42;;;2.03;;
13345;SDS011;6742;48.036;15.780;2024-02-14T10:18:09;5.60;;;2.10;;
13345;SDS011;6742;48.036;15.780;2024-02-14T10:20:36;2.22;;;1.77;;
13345;SDS011;6742;48.036;15.780;2024-02-14T10:23:10;5.00;;;2.28;;
13345;SDS011;6742;48.036;15.780;2024-02-14T10:25:37;3.25;;;2.08;;
13345;SDS011;6742;48.036;15.780;2024-02-14T10:28:05;4.35;;;2.10;;
13345;SDS011;6742;48.036;15.780;2024-02-14T10:30:33;3.10;;;1.80;;
13345;SDS011;6742;48.036;15.780;2024-02-14T10:33:02;2.65;;;1.92;;
13345;SDS011;6742;48.036;15.780;2024-02-14T10:35:30;2.75;;;1.70;;
13345;SDS011;6742;48.036;15.780;2024-02-14T10:37:57;3.95;;;1.67;;
13345;SDS011;6742;48.036;15.780;2024-02-14T10:40:28;2.22;;;1.58;;
13345;SDS011;6742;48.036;15.780;2024-02-14T10:42:57;3.63;;;1.70;;
13345;SDS011;6742;48.036;15.780;2024-02-14T10:45:24;3.58;;;1.60;;
13345;SDS011;6742;48.036;15.780;2024-02-14T10:47:53;4.65;;;2.22;;
13345;SDS011;6742;48.036;15.780;2024-02-14T10:50:22;2.95;;;1.70;;
13345;SDS011;6742;48.036;15.780;2024-02-14T10:52:51;2.58;;;1.60;;
13345;SDS011;6742;48.036;15.780;2024-02-14T10:55:22;2.78;;;1.63;;
13345;SDS011;6742;48.036;15.780;2024-02-14T10:57:55;2.53;;;1.50;;
13345;SDS011;6742;48.036;15.780;2024-02-14T11:00:23;2.00;;;1.50;;
13345;SDS011;6742;48.036;15.780;2024-02-14T11:02:50;2.85;;;1.63;;
13345;SDS011;6742;48.036;15.780;2024-02-14T11:05:18;2.63;;;1.70;;
13345;SDS011;6742;48.036;15.780;2024-02-14T11:07:49;1.98;;;1.67;;
13345;SDS011;6742;48.036;15.780;2024-02-14T11:10:18;2.03;;;1.55;;
13345;SDS011;6742;48.036;15.780;2024-02-14T11:12:46;3.58;;;1.60;;
13345;SDS011;6742;48.036;15.780;2024-02-14T11:15:18;3.65;;;1.65;;
13345;SDS011;6742;48.036;15.780;2024-02-14T11:17:46;3.17;;;1.70;;
13345;SDS011;6742;48.036;15.780;2024-02-14T11:20:15;2.47;;;1.40;;
13345;SDS011;6742;48.036;15.780;2024-02-14T11:22:50;3.88;;;1.40;;
13345;SDS011;6742;48.036;15.780;2024-02-14T11:25:30;2.45;;;1.50;;
13345;SDS011;6742;48.036;15.780;2024-02-14T11:27:59;1.75;;;1.25;;
13345;SDS011;6742;48.036;15.780;2024-02-14T11:30:30;2.28;;;1.45;;
13345;SDS011;6742;48.036;15.780;2024-02-14T11:33:12;2.58;;;1.63;;
13345;SDS011;6742;48.036;15.780;2024-02-14T11:35:45;3.45;;;1.60;;
13345;SDS011;6742;48.036;15.780;2024-02-14T11:38:12;2.03;;;1.30;;
13345;SDS011;6742;48.036;15.780;2024-02-14T11:40:40;4.28;;;1.30;;
13345;SDS011;6742;48.036;15.780;2024-02-14T11:43:10;2.17;;;1.20;;
13345;SDS011;6742;48.036;15.780;2024-02-14T11:45:40;3.38;;;1.38;;
13345;SDS011;6742;48.036;15.780;2024-02-14T11:48:08;1.58;;;1.17;;
13345;SDS011;6742;48.036;15.780;2024-02-14T11:50:38;1.77;;;1.20;;
13345;SDS011;6742;48.036;15.780;2024-02-14T11:53:06;2.22;;;1.17;;
13345;SDS011;6742;48.036;15.780;2024-02-14T11:55:34;3.17;;;1.17;;
13345;SDS011;6742;48.036;15.780;2024-02-14T11:58:02;2.22;;;1.38;;
13345;SDS011;6742;48.036;15.780;2024-02-14T12:00:32;2.03;;;1.10;;
13345;SDS011;6742;48.036;15.780;2024-02-14T12:03:02;1.75;;;1.40;;
13345;SDS011;6742;48.036;15.780;2024-02-14T12:05:30;3.20;;;1.50;;
13345;SDS011;6742;48.036;15.780;2024-02-14T12:07:58;2.25;;;1.58;;
13345;SDS011;6742;48.036;15.780;2024-02-14T12:10:25;2.25;;;1.30;;
13345;SDS011;6742;48.036;15.780;2024-02-14T12:12:52;7.25;;;1.30;;
13345;SDS011;6742;48.036;15.780;2024-02-14T12:15:20;2.92;;;1.40;;
13345;SDS011;6742;48.036;15.780;2024-02-14T12:17:47;4.82;;;1.30;;
13345;SDS011;6742;48.036;15.780;2024-02-14T12:20:15;1.73;;;1.13;;
13345;SDS011;6742;48.036;15.780;2024-02-14T12:22:42;3.58;;;1.40;;
13345;SDS011;6742;48.036;15.780;2024-02-14T12:25:09;3.08;;;1.42;;
13345;SDS011;6742;48.036;15.780;2024-02-14T12:27:36;4.00;;;1.23;;
13345;SDS011;6742;48.036;15.780;2024-02-14T12:30:05;2.03;;;1.10;;
13345;SDS011;6742;48.036;15.780;2024-02-14T12:32:35;1.98;;;1.25;;
13345;SDS011;6742;48.036;15.780;2024-02-14T12:35:01;2.38;;;1.30;;
13345;SDS011;6742;48.036;15.780;2024-02-14T12:37:31;2.15;;;1.20;;
13345;SDS011;6742;48.036;15.780;2024-02-14T12:39:58;1.50;;;1.10;;
13345;SDS011;6742;48.036;15.780;2024-02-14T12:42:25;2.30;;;1.15;;
13345;SDS011;6742;48.036;15.780;2024-02-14T12:44:54;2.03;;;1.10;;
13345;SDS011;6742;48.036;15.780;2024-02-14T12:47:21;1.98;;;1.23;;
13345;SDS011;6742;48.036;15.780;2024-02-14T12:49:50;1.75;;;1.20;;
13345;SDS011;6742;48.036;15.780;2024-02-14T12:52:17;3.60;;;1.50;;
13345;SDS011;6742;48.036;15.780;2024-02-14T12:54:45;1.80;;;1.45;;
13345;SDS011;6742;48.036;15.780;2024-02-14T12:57:12;2.25;;;1.20;;
13345;SDS011;6742;48.036;15.780;2024-02-14T12:59:39;2.38;;;1.20;;
13345;SDS011;6742;48.036;15.780;2024-02-14T13:02:06;5.15;;;2.55;;
13345;SDS011;6742;48.036;15.780;2024-02-14T13:04:33;7.60;;;3.35;;
13345;SDS011;6742;48.036;15.780;2024-02-14T13:07:01;3.90;;;2.20;;
13345;SDS011;6742;48.036;15.780;2024-02-14T13:09:28;2.58;;;1.60;;
13345;SDS011;6742;48.036;15.780;2024-02-14T13:11:56;3.55;;;1.50;;
13345;SDS011;6742;48.036;15.780;2024-02-14T13:14:23;1.88;;;1.05;;
13345;SDS011;6742;48.036;15.780;2024-02-14T13:16:51;2.75;;;1.20;;
13345;SDS011;6742;48.036;15.780;2024-02-14T13:19:18;1.27;;;1.10;;
13345;SDS011;6742;48.036;15.780;2024-02-14T13:21:45;1.73;;;1.17;;
13345;SDS011;6742;48.036;15.780;2024-02-14T13:24:12;2.55;;;1.20;;
13345;SDS011;6742;48.036;15.780;2024-02-14T13:26:39;2.60;;;1.20;;
13345;SDS011;6742;48.036;15.780;2024-02-14T13:29:08;2.65;;;1.20;;
13345;SDS011;6742;48.036;15.780;2024-02-14T13:31:35;2.58;;;1.40;;
13345;SDS011;6742;48.036;15.780;2024-02-14T13:34:02;2.72;;;1.88;;
13345;SDS011;6742;48.036;15.780;2024-02-14T13:36:30;1.73;;;1.58;;
13345;SDS011;6742;48.036;15.780;2024-02-14T13:38:57;2.60;;;1.40;;
13345;SDS011;6742;48.036;15.780;2024-02-14T13:41:25;2.13;;;1.30;;
13345;SDS011;6742;48.036;15.780;2024-02-14T13:43:53;4.38;;;1.50;;
13345;SDS011;6742;48.036;15.780;2024-02-14T13:46:21;3.15;;;1.58;;
13345;SDS011;6742;48.036;15.780;2024-02-14T13:48:51;4.00;;;1.40;;
13345;SDS011;6742;48.036;15.780;2024-02-14T13:51:18;1.48;;;1.20;;
13345;SDS011;6742;48.036;15.780;2024-02-14T13:53:45;2.72;;;1.20;;
13345;SDS011;6742;48.036;15.780;2024-02-14T13:56:12;2.95;;;1.30;;
13345;SDS011;6742;48.036;15.780;2024-02-14T13:58:41;2.08;;;1.05;;
13345;SDS011;6742;48.036;15.780;2024-02-14T14:01:09;2.15;;;1.20;;
13345;SDS011;6742;48.036;15.780;2024-02-14T14:03:37;2.95;;;1.15;;
13345;SDS011;6742;48.036;15.780;2024-02-14T14:06:06;2.83;;;1.17;;
13345;SDS011;6742;48.036;15.780;2024-02-14T14:08:34;2.88;;;1.38;;
13345;SDS011;6742;48.036;15.780;2024-02-14T14:11:02;3.60;;;1.60;;
13345;SDS011;6742;48.036;15.780;2024-02-14T14:13:29;1.30;;;1.17;;
13345;SDS011;6742;48.036;15.780;2024-02-14T14:15:58;2.88;;;1.20;;
13345;SDS011;6742;48.036;15.780;2024-02-14T14:18:25;3.42;;;1.65;;
13345;SDS011;6742;48.036;15.780;2024-02-14T14:20:53;1.58;;;1.10;;
13345;SDS011;6742;48.036;15.780;2024-02-14T14:23:20;2.72;;;1.60;;
13345;SDS011;6742;48.036;15.780;2024-02-14T14:25:47;1.92;;;1.48;;
13345;SDS011;6742;48.036;15.780;2024-02-14T14:28:14;3.20;;;1.77;;
13345;SDS011;6742;48.036;15.780;2024-02-14T14:30:42;2.50;;;1.42;;
13345;SDS011;6742;48.036;15.780;2024-02-14T14:33:10;3.53;;;1.30;;
13345;SDS011;6742;48.036;15.780;2024-02-14T14:35:37;2.00;;;1.30;;
13345;SDS011;6742;48.036;15.780;2024-02-14T14:38:05;2.72;;;1.20;;
13345;SDS011;6742;48.036;15.780;2024-02-14T14:40:32;2.60;;;1.30;;
13345;SDS011;6742;48.036;15.780;2024-02-14T14:42:59;4.40;;;1.50;;
13345;SDS011;6742;48.036;15.780;2024-02-14T14:45:26;4.63;;;2.80;;
13345;SDS011;6742;48.036;15.780;2024-02-14T14:47:54;3.15;;;2.00;;
13345;SDS011;6742;48.036;15.780;2024-02-14T14:50:21;2.40;;;1.55;;
13345;SDS011;6742;48.036;15.780;2024-02-14T14:52:47;3.47;;;2.28;;